Time;durP1;ratioP1;P1;durP2;ratioP2;P2;SDS_P1;SDS_P2;PMS_P1;PMS_P2;Temp;Humidity;BMP_temperature;BMP_pressure;BME280_temperature;BME280_humidity;BME280_pressure;Samples;Min_cycle;Max_cycle;Signal;HPM_P1;HPM_P2
2022/06/02 00:01:30;;;;;;;13.98;8.02;;;;;;;10.74;78.44;100175.81;5019651;28;20103;-86
2022/06/02 00:03:59;;;;;;;;;;;;;;;10.49;78.90;100177.19;5033760;28;20064;-85
2022/06/02 00:06:48;;;;;;;13.18;8.93;;;;;;;10.02;79.83;100186.59;5039283;28;20293;-84
2022/06/02 00:09:41;;;;;;;15.48;9.27;;;;;;;9.72;80.71;100190.53;5039034;28;20041;-85
2022/06/02 00:12:31;;;;;;;16.50;9.80;;;;;;;9.61;81.37;100182.19;5040948;28;20052;-85
2022/06/02 00:15:15;;;;;;;17.83;8.85;;;;;;;9.58;81.62;100190.84;5018485;28;20124;-85
2022/06/02 00:17:52;;;;;;;16.48;9.50;;;;;;;9.65;81.31;100193.41;5030421;28;20260;-85
2022/06/02 00:20:39;;;;;;;16.88;11.32;;;;;;;9.50;81.49;100192.09;5039983;28;20480;-85
2022/06/02 00:23:30;;;;;;;15.50;10.05;;;;;;;9.32;81.83;100196.69;5039783;28;20410;-84
2022/06/02 00:26:11;;;;;;;17.13;9.52;;;;;;;9.35;82.12;100195.38;5040158;28;20044;-85
2022/06/02 00:28:58;;;;;;;17.48;11.10;;;;;;;9.15;82.73;100196.69;5040206;28;20070;-85
2022/06/02 00:31:36;;;;;;;15.50;9.35;;;;;;;9.25;82.45;100195.22;5039243;28;20643;-85
2022/06/02 00:34:19;;;;;;;14.93;8.63;;;;;;;9.19;82.58;100197.81;5039076;28;20036;-86
2022/06/02 00:37:23;;;;;;;16.70;10.80;;;;;;;9.26;81.86;100202.28;5038524;28;20419;-84
2022/06/02 00:39:50;;;;;;;14.65;9.73;;;;;;;9.16;82.21;100192.06;4996810;28;20509;-85
2022/06/02 00:42:35;;;;;;;17.42;10.98;;;;;;;9.16;82.55;100198.31;4996773;28;20368;-85
2022/06/02 00:45:11;;;;;;;16.10;9.43;;;;;;;9.07;82.76;100194.34;5013542;28;20049;-84
2022/06/02 00:48:06;;;;;;;17.67;10.93;;;;;;;9.00;82.87;100194.50;5037288;28;20040;-85
2022/06/02 00:50:37;;;;;;;22.30;12.23;;;;;;;8.86;83.20;100210.28;5054673;28;20089;-85
2022/06/02 00:53:30;;;;;;;20.67;12.57;;;;;;;8.92;83.63;100209.31;5039139;28;20051;-84
2022/06/02 00:59:13;;;;;;;19.25;11.85;;;;;;;8.98;82.96;100213.78;5038783;28;20305;-84
2022/06/02 01:01:39;;;;;;;22.98;13.23;;;;;;;8.96;83.15;100215.94;5051252;28;20044;-84
2022/06/02 01:04:11;;;;;;;21.23;11.90;;;;;;;8.71;83.35;100208.91;5045409;28;20392;-85
2022/06/02 01:07:01;;;;;;;24.27;13.75;;;;;;;8.76;83.38;100210.91;5039298;28;20115;-85
2022/06/02 01:09:59;;;;;;;24.92;14.32;;;;;;;8.70;83.79;100209.16;5055052;28;20072;-85
2022/06/02 01:12:30;;;;;;;21.60;13.68;;;;;;;8.71;84.10;100214.34;5038806;28;20113;-84
2022/06/02 01:15:06;;;;;;;24.25;14.88;;;;;;;8.72;84.62;100218.72;5039518;28;20033;-84
2022/06/02 01:17:53;;;;;;;22.10;12.75;;;;;;;8.85;84.11;100219.50;5039612;28;20029;-84
2022/06/02 01:20:36;;;;;;;21.83;14.07;;;;;;;9.06;83.09;100219.88;5039591;28;20087;-85
2022/06/02 01:23:39;;;;;;;25.85;16.77;;;;;;;9.03;83.57;100220.38;5039588;28;20603;-84
2022/06/02 01:26:45;;;;;;;23.05;13.55;;;;;;;9.02;83.17;100224.16;5040112;28;20029;-84
2022/06/02 01:29:42;;;;;;;23.63;13.95;;;;;;;9.21;83.37;100227.53;5039734;28;20028;-82
2022/06/02 01:32:10;;;;;;;23.83;14.70;;;;;;;9.36;83.16;100229.69;5039693;28;20036;-84
2022/06/02 01:35:09;;;;;;;22.35;14.80;;;;;;;9.64;82.43;100227.97;5039409;28;20037;-84
2022/06/02 01:37:50;;;;;;;24.45;14.45;;;;;;;9.72;81.17;100224.03;5040550;28;20033;-85
2022/06/02 01:40:37;;;;;;;27.00;13.38;;;;;;;9.53;80.99;100234.31;5042859;28;20041;-85
2022/06/02 01:43:20;;;;;;;25.08;14.32;;;;;;;9.36;81.97;100226.97;5043290;28;20045;-86
2022/06/02 01:46:10;;;;;;;26.53;14.47;;;;;;;9.61;81.11;100228.47;5042857;28;20427;-85
2022/06/02 01:48:53;;;;;;;26.40;16.50;;;;;;;9.30;82.08;100236.09;5042671;28;20033;-85
2022/06/02 01:51:46;;;;;;;25.88;17.17;;;;;;;9.29;82.25;100229.03;5043564;28;20021;-85
2022/06/02 01:54:50;;;;;;;27.42;16.63;;;;;;;9.12;82.23;100229.81;5042409;28;20036;-85
2022/06/02 01:57:34;;;;;;;25.20;15.73;;;;;;;9.07;82.76;100232.44;5056328;28;20033;-85
2022/06/02 02:00:11;;;;;;;30.83;17.80;;;;;;;9.05;82.69;100232.66;5062833;28;20269;-85
2022/06/02 02:02:55;;;;;;;34.38;19.85;;;;;;;8.90;82.59;100232.38;5060314;28;20032;-84
2022/06/02 02:05:34;;;;;;;30.70;16.52;;;;;;;8.84;83.22;100234.16;5043312;28;20655;-85
2022/06/02 02:08:21;;;;;;;28.50;16.45;;;;;;;8.81;83.44;100231.91;5043335;28;20388;-85
2022/06/02 02:11:11;;;;;;;29.90;18.45;;;;;;;9.07;83.21;100243.31;5043264;28;20056;-85
2022/06/02 02:14:13;;;;;;;28.98;16.08;;;;;;;9.45;82.11;100233.66;5043264;28;20060;-85
2022/06/02 02:17:07;;;;;;;29.52;18.45;;;;;;;9.44;82.71;100242.88;5042035;28;20060;-85
2022/06/02 02:19:54;;;;;;;33.90;19.05;;;;;;;9.61;81.87;100244.81;5042790;28;20025;-84
2022/06/02 02:22:46;;;;;;;30.85;16.67;;;;;;;9.60;81.31;100247.78;5043139;28;20345;-84
2022/06/02 02:25:21;;;;;;;34.60;21.40;;;;;;;9.71;81.15;100237.88;5043281;28;20179;-84
2022/06/02 02:28:04;;;;;;;34.35;19.08;;;;;;;9.71;81.26;100235.16;5041207;28;20125;-85
2022/06/02 02:30:41;;;;;;;36.50;19.83;;;;;;;9.51;81.55;100231.84;5043342;28;20036;-85
2022/06/02 02:33:44;;;;;;;36.42;20.98;;;;;;;9.48;81.42;100242.41;5042490;28;20037;-85
2022/06/02 02:36:47;;;;;;;29.77;19.38;;;;;;;9.65;81.91;100236.97;5042874;28;20423;-85
2022/06/02 02:39:29;;;;;;;32.50;20.63;;;;;;;9.69;80.94;100246.28;5043335;28;20510;-84
2022/06/02 02:42:31;;;;;;;31.35;19.08;;;;;;;9.64;81.70;100244.31;5042369;28;20407;-84
2022/06/02 02:45:20;;;;;;;33.95;19.98;;;;;;;9.63;81.13;100237.22;5042445;28;20060;-84
2022/06/02 02:47:53;;;;;;;37.00;19.80;;;;;;;9.42;81.96;100234.13;5041541;28;20025;-86
2022/06/02 02:50:29;;;;;;;40.13;22.90;;;;;;;9.32;81.86;100239.41;5041815;28;20051;-84
2022/06/02 02:53:05;;;;;;;34.42;20.73;;;;;;;9.10;82.94;100234.66;5041966;28;20063;-85
2022/06/02 02:55:40;;;;;;;37.72;22.92;;;;;;;9.05;82.86;100240.03;5041074;28;20043;-85
2022/06/02 02:58:14;;;;;;;35.53;19.08;;;;;;;9.04;82.76;100238.34;5061266;28;20103;-84
2022/06/02 03:01:06;;;;;;;35.63;23.88;;;;;;;8.87;82.78;100245.38;5062142;28;20086;-85
2022/06/02 03:03:41;;;;;;;40.65;21.40;;;;;;;8.67;84.06;100244.97;5050973;28;20033;-85
2022/06/02 03:06:20;;;;;;;49.03;26.27;;;;;;;8.73;83.73;100247.56;5041477;28;20094;-85
2022/06/02 03:09:24;;;;;;;39.70;21.92;;;;;;;8.63;83.60;100260.94;5041968;28;20037;-85
2022/06/02 03:11:52;;;;;;;40.35;24.20;;;;;;;8.37;84.70;100258.47;5042007;28;20033;-85
2022/06/02 03:14:55;;;;;;;39.67;22.80;;;;;;;8.59;84.75;100265.19;5042332;28;20160;-84
2022/06/02 03:17:57;;;;;;;34.67;20.52;;;;;;;8.87;84.14;100260.88;5041488;28;20033;-85
2022/06/02 03:20:39;;;;;;;36.92;21.95;;;;;;;9.16;83.91;100266.34;5057486;28;20447;-85
2022/06/02 03:23:22;;;;;;;34.40;20.70;;;;;;;9.28;82.65;100265.44;5042065;28;20056;-85
2022/06/02 03:25:53;;;;;;;47.30;24.08;;;;;;;9.29;82.05;100262.50;5042249;28;20079;-84
2022/06/02 03:28:42;;;;;;;41.22;25.48;;;;;;;8.94;82.96;100261.56;5042125;28;20025;-84
2022/06/02 03:31:37;;;;;;;36.30;21.33;;;;;;;8.75;83.43;100266.34;5042442;28;20376;-85
2022/06/02 03:34:29;;;;;;;37.72;22.45;;;;;;;8.57;84.25;100267.31;5041286;28;20063;-84
2022/06/02 03:37:16;;;;;;;44.58;25.02;;;;;;;8.65;84.21;100269.66;5042178;28;20493;-85
2022/06/02 03:39:56;;;;;;;34.72;20.83;;;;;;;8.96;83.05;100270.31;5041988;28;20126;-85
2022/06/02 03:42:32;;;;;;;33.35;19.10;;;;;;;9.17;82.74;100275.31;5040729;28;20073;-85
2022/06/02 03:45:24;;;;;;;34.35;20.27;;;;;;;9.19;83.05;100282.16;5041986;28;20032;-85
2022/06/02 03:47:57;;;;;;;41.33;25.65;;;;;;;9.19;83.29;100278.63;5040961;28;20046;-85
2022/06/02 03:50:52;;;;;;;39.08;22.70;;;;;;;9.49;82.70;100290.31;5041188;28;20095;-84
2022/06/02 03:53:42;;;;;;;36.13;22.70;;;;;;;9.28;82.06;100288.03;5041760;28;20530;-84
2022/06/02 03:56:13;;;;;;;41.67;24.75;;;;;;;9.13;83.28;100288.59;5040873;28;20037;-84
2022/06/02 03:58:53;;;;;;;50.05;26.38;;;;;;;9.11;83.10;100293.44;5040892;28;20094;-85
2022/06/02 04:01:24;;;;;;;46.85;26.70;;;;;;;8.95;83.96;100295.03;5040206;28;20033;-84
2022/06/02 04:04:12;;;;;;;44.38;23.90;;;;;;;8.81;84.31;100305.31;5040403;28;20036;-85
2022/06/02 04:07:08;;;;;;;44.63;24.30;;;;;;;8.99;84.03;100297.00;5041078;28;20303;-85
2022/06/02 04:09:53;;;;;;;38.85;25.20;;;;;;;9.25;84.06;100304.03;5040376;28;20472;-85
2022/06/02 04:15:40;;;;;;;38.00;21.42;;;;;;;9.48;82.46;100313.19;5041152;28;20086;-85
2022/06/02 04:18:05;;;;;;;;;;;;;;;9.33;83.06;100317.25;5041990;28;20073;-86
2022/06/02 04:21:12;;;;;;;39.47;22.33;;;;;;;9.46;82.71;100324.28;5041075;28;19943;-84
2022/06/02 04:24:17;;;;;;;45.20;25.40;;;;;;;9.35;83.12;100326.00;5036804;28;20055;-85
2022/06/02 04:27:01;;;;;;;33.90;21.10;;;;;;;9.68;82.69;100329.06;5041084;28;20383;-85
2022/06/02 04:29:46;;;;;;;36.15;21.60;;;;;;;9.73;82.85;100331.03;5039871;28;20476;-85
2022/06/02 04:32:14;;;;;;;;;;;;;;;9.65;83.62;100327.66;5040744;28;20040;-85
2022/06/02 04:34:53;;;;;;;50.97;25.58;;;;;;;9.74;83.24;100332.69;5039918;28;19920;-86
2022/06/02 04:37:31;;;;;;;40.83;21.60;;;;;;;9.83;83.39;100342.09;5040390;28;20025;-85
2022/06/02 04:40:17;;;;;;;38.80;21.95;;;;;;;10.02;82.48;100340.00;5040790;28;20075;-85
2022/06/02 04:43:03;;;;;;;40.42;24.15;;;;;;;9.83;82.75;100333.94;5040208;28;20068;-85
2022/06/02 04:45:40;;;;;;;38.03;24.00;;;;;;;9.90;82.68;100341.97;5040041;28;20115;-84
2022/06/02 04:48:18;;;;;;;38.65;23.50;;;;;;;9.90;82.97;100342.78;5039877;28;20028;-85
2022/06/02 04:50:56;;;;;;;58.60;26.52;;;;;;;9.97;83.10;100347.22;5039247;28;20051;-85
2022/06/02 04:53:36;;;;;;;35.55;21.80;;;;;;;9.93;83.19;100355.06;5040508;28;20037;-84
2022/06/02 04:56:09;;;;;;;36.83;23.08;;;;;;;10.07;82.32;100350.13;5045479;28;20054;-85
2022/06/02 04:58:56;;;;;;;38.42;22.80;;;;;;;10.21;81.79;100353.34;5058844;28;20042;-84
2022/06/02 05:01:52;;;;;;;35.22;21.75;;;;;;;10.13;82.48;100349.13;5060346;28;20037;-85
2022/06/02 05:04:46;;;;;;;35.80;23.08;;;;;;;10.18;83.08;100363.91;5043104;28;20043;-86
2022/06/02 05:07:26;;;;;;;36.35;20.70;;;;;;;10.19;82.84;100363.66;5039951;28;20131;-83
2022/06/02 05:09:58;;;;;;;40.03;22.52;;;;;;;10.28;82.70;100362.19;5039901;28;20495;-85
2022/06/02 05:12:53;;;;;;;36.22;22.65;;;;;;;10.16;82.76;100369.63;5041473;28;20996;-83
2022/06/02 05:15:23;;;;;;;39.30;23.90;;;;;;;10.15;83.85;100371.50;5044269;28;20033;-84
2022/06/02 05:18:10;;;;;;;36.42;19.73;;;;;;;10.17;83.28;100373.97;5043168;28;20048;-83
2022/06/02 05:21:17;;;;;;;39.90;24.00;;;;;;;10.27;83.15;100382.34;5038727;28;20033;-83
2022/06/02 05:24:11;;;;;;;36.90;21.48;;;;;;;10.28;82.95;100380.44;5036326;28;20131;-83
2022/06/02 05:26:45;;;;;;;29.52;19.80;;;;;;;10.44;81.78;100394.31;5040934;28;20041;-83
2022/06/02 05:29:35;;;;;;;33.72;21.20;;;;;;;10.48;81.75;100392.75;5042926;28;20547;-83
2022/06/02 05:32:09;;;;;;;33.92;20.15;;;;;;;10.54;82.06;100394.50;5040254;28;20379;-84
2022/06/02 05:34:40;;;;;;;;;;;;;;;10.65;81.34;100387.31;5041048;28;20041;-82
2022/06/02 05:37:05;;;;;;;27.33;17.60;;;;;;;10.69;81.25;100390.34;5042484;28;19917;-84
2022/06/02 05:39:43;;;;;;;31.70;16.47;;;;;;;10.82;81.16;100384.53;5043237;28;20022;-84
2022/06/02 05:42:26;;;;;;;30.70;16.63;;;;;;;10.88;81.23;100398.28;5040813;28;20056;-84
2022/06/02 05:44:59;;;;;;;26.30;15.05;;;;;;;11.07;80.13;100391.44;5041871;28;20029;-84
2022/06/02 05:47:31;;;;;;;24.55;15.48;;;;;;;11.14;79.64;100387.69;5039100;28;20060;-84
2022/06/02 05:50:38;;;;;;;24.05;14.48;;;;;;;11.14;80.20;100388.53;5042905;28;20044;-83
2022/06/02 05:53:29;;;;;;;30.55;13.80;;;;;;;10.99;80.28;100383.69;4986589;28;20496;-84
2022/06/02 05:56:09;;;;;;;26.15;13.73;;;;;;;11.12;78.97;100387.97;5021318;28;20066;-84
2022/06/02 05:58:50;;;;;;;23.77;12.65;;;;;;;11.17;79.67;100388.00;5059875;28;20032;-83
2022/06/02 06:01:24;;;;;;;22.13;13.00;;;;;;;11.32;79.43;100387.38;5059415;28;20553;-84
2022/06/02 06:03:59;;;;;;;;;;;;;;;11.30;78.71;100395.00;5046593;28;20029;-84
2022/06/02 06:06:34;;;;;;;28.23;15.77;;;;;;;11.35;78.16;100387.97;5039558;28;19924;-83
2022/06/02 06:09:32;;;;;;;24.23;12.35;;;;;;;11.26;78.68;100382.94;5054250;28;20463;-82
2022/06/02 06:12:32;;;;;;;21.30;11.68;;;;;;;11.29;78.63;100387.03;5038694;28;20510;-84
2022/06/02 06:15:29;;;;;;;22.75;13.27;;;;;;;11.25;79.23;100380.47;5019318;28;20061;-84
2022/06/02 06:17:59;;;;;;;28.42;17.00;;;;;;;11.33;78.26;100389.03;5031615;28;20035;-82
2022/06/02 06:20:47;;;;;;;22.80;12.70;;;;;;;11.46;78.39;100381.53;5038561;28;20049;-84
2022/06/02 06:23:50;;;;;;;21.30;12.75;;;;;;;11.64;78.00;100393.19;5037358;28;20496;-83
2022/06/02 06:26:15;;;;;;;27.77;15.35;;;;;;;11.65;78.23;100394.84;5042461;28;20515;-84
2022/06/02 06:28:55;;;;;;;26.93;13.57;;;;;;;11.75;77.85;100394.13;5042342;28;20056;-84
2022/06/02 06:31:36;;;;;;;23.67;13.32;;;;;;;11.74;78.54;100389.72;5042006;28;20140;-83
2022/06/02 06:34:13;;;;;;;24.23;14.05;;;;;;;11.83;77.83;100392.84;5041886;28;20385;-83
2022/06/02 06:36:59;;;;;;;24.02;13.20;;;;;;;11.93;77.44;100400.31;5042479;28;20055;-83
2022/06/02 06:39:39;;;;;;;24.70;10.85;;;;;;;11.89;77.41;100409.03;5041892;28;20086;-81
2022/06/02 06:42:21;;;;;;;20.17;11.55;;;;;;;11.96;77.62;100408.81;5042002;28;20049;-83
2022/06/02 06:44:55;;;;;;;19.67;11.85;;;;;;;11.73;77.85;100405.31;5042674;28;20523;-83
2022/06/02 06:47:29;;;;;;;21.25;12.07;;;;;;;11.95;76.88;100409.91;5040693;28;20622;-83
2022/06/02 06:50:03;;;;;;;17.15;10.70;;;;;;;12.16;77.01;100401.94;5041972;28;20806;-82
2022/06/02 06:52:50;;;;;;;15.75;10.18;;;;;;;12.00;77.04;100401.75;5046862;28;20571;-88
2022/06/02 06:55:22;;;;;;;16.98;10.45;;;;;;;11.91;77.58;100398.66;5038588;28;20037;-89
2022/06/02 06:57:56;;;;;;;21.17;10.35;;;;;;;11.76;77.93;100406.69;5043004;28;20036;-90
2022/06/02 07:00:28;;;;;;;19.75;11.10;;;;;;;12.00;77.58;100409.94;5042005;28;20028;-86
2022/06/02 07:02:56;;;;;;;16.13;10.45;;;;;;;12.20;76.51;100410.44;5042236;28;20542;-87
2022/06/02 07:05:44;;;;;;;19.48;10.68;;;;;;;12.22;75.88;100408.25;5041767;28;20044;-86
2022/06/02 07:08:36;;;;;;;15.93;10.00;;;;;;;12.45;75.53;100415.28;5041225;28;20036;-85
2022/06/02 07:14:27;;;;;;;20.20;10.00;;;;;;;12.06;75.48;100420.94;5039927;28;20855;-85
2022/06/02 07:16:56;;;;;;;34.47;13.48;;;;;;;12.33;75.90;100420.91;5039417;28;20853;-85
2022/06/02 07:19:22;;;;;;;17.95;10.55;;;;;;;12.48;75.16;100422.97;5040796;28;20029;-86
2022/06/02 07:22:20;;;;;;;18.07;10.43;;;;;;;12.67;74.40;100428.00;5040786;28;20032;-84
2022/06/02 07:25:15;;;;;;;17.58;10.73;;;;;;;12.89;73.85;100431.72;5021970;28;20037;-82
2022/06/02 07:27:52;;;;;;;18.30;9.07;;;;;;;12.65;74.28;100443.84;5021444;28;20060;-83
2022/06/02 07:30:33;;;;;;;16.75;9.18;;;;;;;12.74;73.93;100441.47;5020666;28;20086;-83
2022/06/02 07:33:40;;;;;;;13.88;8.30;;;;;;;12.96;74.12;100452.28;5026027;28;20927;-83
2022/06/02 07:36:25;;;;;;;16.02;9.10;;;;;;;13.13;72.86;100456.78;5045332;28;20045;-85
2022/06/02 07:39:27;;;;;;;13.60;7.40;;;;;;;13.01;71.74;100450.69;5045836;28;20052;-84
2022/06/02 07:42:14;;;;;;;15.02;8.75;;;;;;;13.10;72.42;100454.56;5040953;28;20033;-84
2022/06/02 07:44:49;;;;;;;15.75;8.68;;;;;;;13.12;71.48;100457.84;5040750;28;20045;-85
2022/06/02 07:47:43;;;;;;;15.63;8.88;;;;;;;13.33;71.33;100452.50;5040729;28;20029;-85
2022/06/02 07:50:18;;;;;;;11.73;6.77;;;;;;;13.52;70.83;100454.75;5041577;28;20524;-84
2022/06/02 07:53:10;;;;;;;14.00;6.18;;;;;;;13.35;69.88;100461.25;5040849;28;20383;-85
2022/06/02 07:55:49;;;;;;;11.10;5.90;;;;;;;13.48;69.19;100459.97;5043266;28;20490;-85
2022/06/02 07:58:36;;;;;;;10.93;6.28;;;;;;;13.45;68.87;100459.66;5061891;28;20046;-85
2022/06/02 08:01:16;;;;;;;11.27;6.00;;;;;;;13.49;68.54;100464.34;5061043;28;20038;-85
2022/06/02 08:03:51;;;;;;;13.55;8.07;;;;;;;13.57;68.51;100463.03;5049260;28;20515;-85
2022/06/02 08:06:38;;;;;;;8.90;5.78;;;;;;;13.63;67.84;100467.44;5041429;28;20043;-85
2022/06/02 08:09:29;;;;;;;8.07;4.70;;;;;;;13.91;67.76;100459.03;5040714;28;20041;-85
2022/06/02 08:12:07;;;;;;;10.88;5.18;;;;;;;14.06;67.05;100458.22;5040530;28;20387;-84
2022/06/02 08:14:47;;;;;;;13.82;6.35;;;;;;;14.21;66.51;100460.19;5038200;28;20037;-84
2022/06/02 08:17:44;;;;;;;9.05;5.35;;;;;;;14.32;65.58;100458.25;5040124;28;20115;-85
2022/06/02 08:20:39;;;;;;;9.60;6.07;;;;;;;14.19;64.12;100462.38;5040387;28;20080;-86
2022/06/02 08:23:25;;;;;;;9.73;5.57;;;;;;;14.20;65.20;100465.91;5040361;28;20037;-85
2022/06/02 08:26:03;;;;;;;12.25;5.40;;;;;;;14.24;63.62;100462.38;5040409;28;20033;-85
2022/06/02 08:28:36;;;;;;;6.80;3.92;;;;;;;14.42;63.53;100453.91;5041184;28;20024;-84
2022/06/02 08:31:36;;;;;;;9.43;5.57;;;;;;;14.45;64.58;100464.31;5040183;28;20342;-85
2022/06/02 08:37:11;;;;;;;8.40;5.07;;;;;;;14.27;65.42;100469.25;5039610;28;20071;-86
2022/06/02 08:40:01;;;;;;;9.20;6.60;;;;;;;14.41;65.28;100468.69;5040321;28;20029;-85
2022/06/02 08:43:00;;;;;;;9.73;5.80;;;;;;;14.42;63.82;100453.91;5040112;28;20437;-84
2022/06/02 08:46:01;;;;;;;8.40;5.15;;;;;;;14.47;62.74;100465.69;5040227;28;20517;-86
2022/06/02 08:48:56;;;;;;;10.85;4.00;;;;;;;14.38;61.26;100455.53;5002586;28;20045;-85
2022/06/02 08:51:58;;;;;;;6.18;3.83;;;;;;;14.39;60.46;100468.13;5040403;28;20040;-85
2022/06/02 08:55:02;;;;;;;6.40;3.95;;;;;;;14.43;61.87;100463.75;5039593;28;20649;-86
2022/06/02 08:57:38;;;;;;;7.82;4.82;;;;;;;14.51;61.29;100470.63;5037899;28;20029;-86
2022/06/02 09:00:23;;;;;;;7.75;4.22;;;;;;;14.24;60.71;100475.25;5040656;28;20139;-85
2022/06/02 09:03:34;;;;;;;7.60;3.97;;;;;;;14.29;61.17;100478.03;5040090;28;20092;-85
2022/06/02 09:06:41;;;;;;;6.63;4.15;;;;;;;14.67;61.50;100472.25;5038656;28;20408;-87
2022/06/02 09:09:23;;;;;;;8.57;4.35;;;;;;;14.78;61.68;100461.28;5038499;28;20218;-85
2022/06/02 09:12:07;;;;;;;7.93;4.47;;;;;;;14.80;61.89;100465.41;5040512;28;20120;-86
2022/06/02 09:15:18;;;;;;;7.75;4.55;;;;;;;14.98;61.21;100463.19;5038413;28;20441;-86
2022/06/02 09:18:08;;;;;;;7.28;4.43;;;;;;;15.24;60.18;100465.88;5023378;28;20593;-85
2022/06/02 09:20:43;;;;;;;6.03;3.50;;;;;;;15.43;60.04;100465.28;5040571;28;20593;-85
2022/06/02 09:23:36;;;;;;;10.27;3.92;;;;;;;15.55;56.48;100462.19;5039378;28;20067;-85
2022/06/02 09:26:22;;;;;;;5.10;2.70;;;;;;;15.62;56.96;100461.91;5039415;28;20048;-85
2022/06/02 09:29:27;;;;;;;6.85;3.55;;;;;;;15.54;54.39;100466.03;5040363;28;20032;-84
2022/06/02 09:32:35;;;;;;;5.82;3.00;;;;;;;15.85;56.23;100470.56;5038987;28;20048;-85
2022/06/02 09:35:23;;;;;;;4.63;2.95;;;;;;;15.97;56.54;100467.47;5019762;28;20123;-85
2022/06/02 09:38:07;;;;;;;5.93;3.75;;;;;;;15.99;57.56;100463.34;5020964;28;20034;-85
2022/06/02 09:40:48;;;;;;;5.43;3.38;;;;;;;16.25;56.66;100461.56;5019506;28;20072;-85
2022/06/02 09:43:35;;;;;;;5.05;3.08;;;;;;;16.28;57.21;100461.81;5026801;28;20103;-84
2022/06/02 09:46:21;;;;;;;4.80;3.25;;;;;;;16.44;57.50;100467.19;5054930;28;20036;-86
2022/06/02 09:49:07;;;;;;;7.35;3.75;;;;;;;16.48;57.76;100465.50;5019190;28;20073;-84
2022/06/02 09:51:39;;;;;;;7.47;4.00;;;;;;;16.48;55.84;100461.94;5019527;28;20042;-84
2022/06/02 09:54:18;;;;;;;5.88;4.03;;;;;;;16.54;56.96;100463.53;5034161;28;20037;-85
2022/06/02 09:56:58;;;;;;;8.48;3.65;;;;;;;16.75;55.38;100474.38;5039466;28;20040;-84
2022/06/02 09:59:35;;;;;;;4.78;2.95;;;;;;;16.63;54.95;100474.75;5041234;28;20526;-86
2022/06/02 10:02:06;;;;;;;5.97;3.63;;;;;;;16.96;55.20;100474.19;5042036;28;20096;-85
2022/06/02 10:04:53;;;;;;;5.88;3.60;;;;;;;17.12;53.49;100470.19;5042939;28;20040;-85
2022/06/02 10:07:24;;;;;;;6.30;4.38;;;;;;;17.26;49.57;100483.25;5046839;28;20025;-85
2022/06/02 10:10:13;;;;;;;7.38;4.00;;;;;;;17.40;52.78;100475.09;5045148;28;20172;-84
2022/06/02 10:13:15;;;;;;;8.55;3.22;;;;;;;17.28;53.20;100467.25;5043324;28;20056;-84
2022/06/02 10:15:41;;;;;;;5.65;3.30;;;;;;;17.41;53.08;100464.91;5046337;28;20063;-85
2022/06/02 10:18:24;;;;;;;7.17;4.13;;;;;;;17.60;51.61;100465.75;5043779;28;20040;-85
2022/06/02 10:21:08;;;;;;;9.95;3.67;;;;;;;17.92;49.55;100465.34;5046929;28;20937;-85
2022/06/02 10:24:03;;;;;;;6.43;2.83;;;;;;;17.77;50.68;100467.22;5046442;28;20029;-85
2022/06/02 10:26:43;;;;;;;5.03;2.97;;;;;;;17.92;48.10;100463.41;5047272;28;20029;-83
2022/06/02 10:29:39;;;;;;;6.05;2.55;;;;;;;18.06;48.50;100465.44;5041850;28;20056;-86
2022/06/02 10:32:28;;;;;;;5.60;2.97;;;;;;;17.92;48.64;100457.09;5042484;28;20134;-84
2022/06/02 10:35:00;;;;;;;6.35;2.40;;;;;;;17.92;49.39;100462.59;5042397;28;20060;-85
2022/06/02 10:37:49;;;;;;;4.47;2.17;;;;;;;18.02;48.86;100459.66;5042427;28;20029;-84
2022/06/02 10:40:18;;;;;;;4.97;2.42;;;;;;;18.03;48.57;100455.81;5041590;28;20025;-85
2022/06/02 10:43:12;;;;;;;8.82;2.08;;;;;;;18.32;46.87;100462.31;5042110;28;20388;-86
2022/06/02 10:46:31;;;;;;;4.32;2.58;;;;;;;18.46;46.93;100456.00;5044422;28;20174;-84
2022/06/02 10:49:11;;;;;;;6.47;4.03;;;;;;;18.38;46.30;100450.06;5021841;28;20036;-85
2022/06/02 10:52:04;;;;;;;4.03;2.55;;;;;;;18.62;46.73;100442.75;5022970;28;20029;-84
2022/06/02 10:55:01;;;;;;;6.90;3.00;;;;;;;18.61;46.58;100450.22;5039204;28;20486;-85
2022/06/02 10:57:52;;;;;;;4.10;2.13;;;;;;;18.83;45.02;100450.69;5058765;28;20550;-85
2022/06/02 11:00:58;;;;;;;4.07;2.40;;;;;;;19.15;43.80;100443.47;5062453;28;20039;-84
2022/06/02 11:03:59;;;;;;;7.43;2.95;;;;;;;18.64;46.21;100452.38;5053155;28;20051;-86
2022/06/02 11:06:30;;;;;;;6.72;3.25;;;;;;;18.13;47.64;100452.06;5041769;28;20040;-84
2022/06/02 11:09:39;;;;;;;5.95;2.95;;;;;;;17.98;48.32;100442.06;5040869;28;20340;-85
2022/06/02 11:12:27;;;;;;;4.85;2.97;;;;;;;17.99;46.97;100454.75;5042054;28;20044;-85
2022/06/02 11:15:10;;;;;;;6.72;3.10;;;;;;;17.74;47.73;100441.03;5021864;28;20045;-84
2022/06/02 11:17:54;;;;;;;4.53;2.28;;;;;;;17.95;47.62;100442.69;5032512;28;20341;-84
2022/06/02 11:20:47;;;;;;;3.50;2.10;;;;;;;17.76;46.61;100434.41;5042068;28;20045;-85
2022/06/02 11:23:45;;;;;;;4.15;2.22;;;;;;;18.16;46.66;100425.81;5041317;28;20059;-84
2022/06/02 11:26:48;;;;;;;5.05;3.00;;;;;;;18.75;45.57;100425.38;5042211;28;20057;-85
2022/06/02 11:29:36;;;;;;;6.70;3.08;;;;;;;18.83;44.79;100410.09;5042387;28;20047;-85
2022/06/02 11:32:22;;;;;;;4.38;1.80;;;;;;;18.77;42.56;100412.09;5041297;28;20021;-85
2022/06/02 11:35:12;;;;;;;10.00;2.35;;;;;;;18.70;43.62;100417.22;5042111;28;20505;-85
2022/06/02 11:38:00;;;;;;;7.93;3.03;;;;;;;18.91;44.71;100408.56;5042029;28;20025;-84
2022/06/02 11:40:37;;;;;;;13.25;3.33;;;;;;;18.95;45.60;100406.00;5041952;28;20025;-85
2022/06/02 11:43:16;;;;;;;5.25;2.67;;;;;;;19.22;44.85;100407.94;5042024;28;20617;-84
2022/06/02 11:45:52;;;;;;;6.68;2.63;;;;;;;19.29;45.22;100407.53;5041076;28;20047;-84
2022/06/02 11:48:38;;;;;;;5.05;2.20;;;;;;;19.73;44.05;100406.34;5041311;28;20060;-85
2022/06/02 11:51:25;;;;;;;4.07;2.70;;;;;;;19.86;44.47;100405.47;5042191;28;20685;-84
2022/06/02 11:54:17;;;;;;;3.67;2.15;;;;;;;19.12;43.73;100408.13;5040658;28;20516;-86
2022/06/02 11:57:07;;;;;;;6.57;2.92;;;;;;;19.04;44.57;100400.59;5020770;28;20090;-84
2022/06/02 11:59:47;;;;;;;3.05;2.15;;;;;;;18.53;45.30;100413.09;5044590;28;20025;-87
2022/06/02 12:02:15;;;;;;;4.80;2.63;;;;;;;18.64;45.34;100401.84;5043808;28;20121;-89
2022/06/02 12:04:59;;;;;;;4.53;2.30;;;;;;;18.55;47.07;100405.31;5046115;28;20495;-87
2022/06/02 12:07:43;;;;;;;;;;;;;;;18.59;47.09;100413.81;5038991;28;20653;-89
2022/06/02 12:10:48;;;;;;;5.75;3.28;;;;;;;18.23;45.31;100404.22;5031683;28;19986;-87
2022/06/02 12:13:40;;;;;;;4.55;2.15;;;;;;;18.14;46.35;100406.81;5023707;28;20052;-88
2022/06/02 12:16:14;;;;;;;4.63;2.65;;;;;;;18.15;45.83;100408.44;5041076;28;20513;-88
2022/06/02 12:19:14;;;;;;;4.25;2.17;;;;;;;18.25;46.34;100401.97;5040989;28;20030;-89
2022/06/02 12:21:59;;;;;;;6.93;2.83;;;;;;;18.29;45.78;100408.53;5040768;28;20045;-88
2022/06/02 12:24:41;;;;;;;5.78;3.42;;;;;;;18.33;45.42;100407.94;5039721;28;20144;-88
2022/06/02 12:27:35;;;;;;;7.47;2.60;;;;;;;18.84;45.11;100389.63;5041302;28;20199;-88
2022/06/02 12:30:12;;;;;;;4.88;2.72;;;;;;;19.55;43.53;100389.56;5041335;28;20071;-88
2022/06/02 12:32:59;;;;;;;4.88;2.10;;;;;;;19.57;43.61;100393.69;5039315;28;20110;-87
2022/06/02 12:36:02;;;;;;;4.38;2.22;;;;;;;19.93;42.54;100396.75;5040960;28;20140;-88
2022/06/02 12:38:55;;;;;;;5.30;2.97;;;;;;;19.94;43.33;100382.59;5041287;28;20029;-88
2022/06/02 12:41:51;;;;;;;12.73;4.50;;;;;;;19.52;42.18;100388.28;5039017;28;20032;-88
2022/06/02 12:44:53;;;;;;;4.90;2.67;;;;;;;19.45;42.17;100387.84;5040142;28;20037;-89
2022/06/02 12:47:43;;;;;;;7.95;3.00;;;;;;;19.71;42.33;100385.34;5040081;28;20036;-88
2022/06/02 12:53:31;;;;;;;3.42;2.40;;;;;;;20.09;41.61;100364.03;5037385;28;20079;-87
2022/06/02 12:56:29;;;;;;;5.18;2.75;;;;;;;19.93;42.25;100378.19;5045407;28;20032;-87
2022/06/02 12:59:25;;;;;;;4.10;2.58;;;;;;;20.07;42.06;100380.09;5059169;28;20036;-88